Time;durP1;ratioP1;P1;durP2;ratioP2;P2;SDS_P1;SDS_P2;PMS_P1;PMS_P2;Temp;Humidity;BMP_temperature;BMP_pressure;BME280_temperature;BME280_humidity;BME280_pressure;Samples;Min_cycle;Max_cycle;Signal;HPM_P1;HPM_P2
2022/10/10 00:00:33;;;;;;;8.77;4.22;;;6.80;99.90;;;;;;5043933;28;20131;-69
2022/10/10 00:02:59;;;;;;;9.80;4.20;;;6.80;99.90;;;;;;5040783;28;20037;-68
2022/10/10 00:05:25;;;;;;;7.40;4.68;;;6.80;99.90;;;;;;5039699;28;20049;-69
2022/10/10 00:07:51;;;;;;;6.28;4.15;;;6.80;99.90;;;;;;5038179;28;20044;-68
2022/10/10 00:10:16;;;;;;;4.78;4.13;;;6.80;99.90;;;;;;5044585;28;20171;-69
2022/10/10 00:12:42;;;;;;;8.77;4.50;;;6.80;99.90;;;;;;5041030;28;20045;-68
2022/10/10 00:15:11;;;;;;;8.20;4.70;;;6.70;99.90;;;;;;5045165;28;20061;-68
2022/10/10 00:17:37;;;;;;;8.50;4.20;;;6.70;99.90;;;;;;5042517;28;20033;-68
2022/10/10 00:20:03;;;;;;;5.90;4.80;;;6.70;99.90;;;;;;5043507;28;20381;-69
2022/10/10 00:22:28;;;;;;;8.73;4.38;;;6.60;99.90;;;;;;5026348;28;20144;-69
2022/10/10 00:24:54;;;;;;;7.90;4.25;;;6.60;99.90;;;;;;5040626;28;20556;-69
2022/10/10 00:27:20;;;;;;;9.43;4.80;;;6.70;99.90;;;;;;5039271;28;20430;-69
2022/10/10 00:29:45;;;;;;;7.93;4.72;;;6.60;99.90;;;;;;5041586;28;20145;-69
2022/10/10 00:32:11;;;;;;;8.75;5.35;;;6.60;99.90;;;;;;5043205;28;20076;-69
2022/10/10 00:34:36;;;;;;;6.70;4.53;;;6.50;99.90;;;;;;5017152;28;20045;-69
2022/10/10 00:37:02;;;;;;;10.63;5.43;;;6.50;99.90;;;;;;5043067;28;20051;-69
2022/10/10 00:39:28;;;;;;;7.50;5.13;;;6.60;99.90;;;;;;5025887;28;20084;-69
2022/10/10 00:41:53;;;;;;;8.20;5.00;;;6.60;99.90;;;;;;5031881;28;20057;-69
2022/10/10 00:44:19;;;;;;;7.45;5.18;;;6.60;99.90;;;;;;5039481;28;20037;-69
2022/10/10 00:46:45;;;;;;;7.72;5.20;;;6.50;99.90;;;;;;5040823;28;20099;-69
2022/10/10 00:49:18;;;;;;;6.85;5.00;;;6.50;99.90;;;;;;5032142;28;20124;-69
2022/10/10 00:51:47;;;;;;;7.50;4.93;;;6.50;99.90;;;;;;5040457;28;20075;-69
2022/10/10 00:54:16;;;;;;;7.25;4.60;;;6.60;99.90;;;;;;5035790;28;20119;-69
2022/10/10 00:57:10;;;;;;;6.90;4.70;;;6.60;99.90;;;;;;5037697;28;20044;-69
2022/10/10 00:59:38;;;;;;;5.03;4.43;;;6.60;99.90;;;;;;5021468;28;20126;-69
2022/10/10 01:02:04;;;;;;;7.45;4.35;;;6.60;99.90;;;;;;5038266;28;20089;-69
2022/10/10 01:04:32;;;;;;;12.75;5.20;;;6.60;99.90;;;;;;5025964;28;20140;-69
2022/10/10 01:07:00;;;;;;;9.48;5.55;;;6.60;99.90;;;;;;5038016;28;20037;-69
2022/10/10 01:09:27;;;;;;;6.95;5.00;;;6.60;99.90;;;;;;5038023;28;20095;-69
2022/10/10 01:12:30;;;;;;;6.13;4.75;;;6.60;99.90;;;;;;5038152;28;20140;-69
2022/10/10 01:15:11;;;;;;;7.90;4.65;;;6.60;99.90;;;;;;5041888;28;20045;-69
2022/10/10 01:17:53;;;;;;;11.57;4.90;;;6.60;99.90;;;;;;5042893;28;20067;-69
2022/10/10 01:21:10;;;;;;;6.85;3.75;;;6.60;99.90;;;;;;5039164;28;20072;-69
2022/10/10 01:23:56;;;;;;;7.80;5.00;;;6.60;99.90;;;;;;5047926;28;20056;-69
2022/10/10 01:26:40;;;;;;;9.30;4.85;;;6.60;99.90;;;;;;5038698;28;20523;-69
2022/10/10 01:29:17;;;;;;;8.02;4.30;;;6.70;99.90;;;;;;5037260;28;20049;-69
2022/10/10 01:31:47;;;;;;;8.63;4.55;;;6.70;99.90;;;;;;5039266;28;20374;-69
2022/10/10 01:34:54;;;;;;;6.18;4.35;;;6.70;99.90;;;;;;5041126;28;20041;-69
2022/10/10 01:37:33;;;;;;;5.55;4.18;;;6.70;99.90;;;;;;5042423;28;20049;-69
2022/10/10 01:40:16;;;;;;;4.93;4.22;;;6.60;99.90;;;;;;5043179;28;20482;-69
2022/10/10 01:42:56;;;;;;;8.75;5.50;;;6.60;99.90;;;;;;5044273;28;20179;-69
2022/10/10 01:45:22;;;;;;;7.00;4.75;;;6.60;99.90;;;;;;5044830;28;20045;-69
2022/10/10 01:47:50;;;;;;;6.13;4.68;;;6.60;99.90;;;;;;5050906;28;20052;-69
2022/10/10 01:50:19;;;;;;;6.70;5.10;;;6.60;99.90;;;;;;5046720;28;20108;-69
2022/10/10 01:52:48;;;;;;;5.68;4.80;;;6.60;99.90;;;;;;5045036;28;20039;-69
2022/10/10 01:55:53;;;;;;;7.47;4.53;;;6.60;99.90;;;;;;5043134;28;20128;-69
2022/10/10 01:58:22;;;;;;;5.80;4.43;;;6.60;99.90;;;;;;5047803;28;20052;-69
2022/10/10 02:00:54;;;;;;;9.75;5.00;;;6.60;99.90;;;;;;5040678;28;20041;-69
2022/10/10 02:03:25;;;;;;;7.50;5.35;;;6.60;99.90;;;;;;5044994;28;20095;-69
2022/10/10 02:06:02;;;;;;;10.02;5.38;;;6.60;99.90;;;;;;5044652;28;20084;-69
2022/10/10 02:08:32;;;;;;;9.15;5.28;;;6.60;99.90;;;;;;5040482;28;20041;-69
2022/10/10 02:11:10;;;;;;;10.23;5.63;;;6.60;99.90;;;;;;5039104;28;20033;-69
2022/10/10 02:13:40;;;;;;;6.82;4.53;;;6.60;99.90;;;;;;5044801;28;20091;-69
2022/10/10 02:16:13;;;;;;;5.05;4.53;;;6.70;99.90;;;;;;5040812;28;20083;-69
2022/10/10 02:18:44;;;;;;;8.75;5.45;;;6.60;99.90;;;;;;5050150;28;20067;-69
2022/10/10 02:21:11;;;;;;;6.80;5.65;;;6.70;99.90;;;;;;5045657;28;20049;-69
2022/10/10 02:23:40;;;;;;;8.20;5.03;;;6.60;99.90;;;;;;5046289;28;20049;-69
2022/10/10 02:26:09;;;;;;;6.28;4.88;;;6.70;99.90;;;;;;5044547;28;20160;-69
2022/10/10 02:28:34;;;;;;;7.60;5.40;;;6.70;99.90;;;;;;5040109;28;20033;-69
2022/10/10 02:31:06;;;;;;;7.75;5.30;;;6.70;99.90;;;;;;5041557;28;20495;-69
2022/10/10 02:33:47;;;;;;;9.32;5.18;;;6.70;99.90;;;;;;5046333;28;20114;-69
2022/10/10 02:36:16;;;;;;;7.72;5.32;;;6.80;99.90;;;;;;5043977;28;20071;-69
2022/10/10 02:38:42;;;;;;;9.65;5.60;;;6.70;99.90;;;;;;5037229;28;20064;-69
2022/10/10 02:41:10;;;;;;;6.55;5.63;;;6.80;99.90;;;;;;5044126;28;20049;-69
2022/10/10 02:43:37;;;;;;;7.07;5.00;;;6.70;99.90;;;;;;5046902;28;20116;-69
2022/10/10 02:46:08;;;;;;;7.35;5.90;;;6.80;99.90;;;;;;5042396;28;20044;-69
2022/10/10 02:48:34;;;;;;;9.90;5.78;;;6.70;99.90;;;;;;5039104;28;20075;-69
2022/10/10 02:50:59;;;;;;;6.20;5.28;;;6.70;99.90;;;;;;5043836;28;20416;-69
2022/10/10 02:53:25;;;;;;;10.02;5.60;;;6.80;99.90;;;;;;5047503;28;20048;-69
2022/10/10 02:55:51;;;;;;;6.80;5.60;;;6.90;99.90;;;;;;5042353;28;20117;-70
2022/10/10 02:58:17;;;;;;;9.15;5.53;;;6.90;99.90;;;;;;5029718;28;20033;-69
2022/10/10 03:00:42;;;;;;;6.57;5.40;;;6.90;99.90;;;;;;5040174;28;20499;-69
2022/10/10 03:03:08;;;;;;;10.02;5.40;;;6.90;99.90;;;;;;5026560;28;20060;-70
2022/10/10 03:05:34;;;;;;;6.57;4.65;;;6.90;99.90;;;;;;5044457;28;20278;-69
2022/10/10 03:07:59;;;;;;;9.30;5.72;;;6.90;99.90;;;;;;5038303;28;20362;-70
2022/10/10 03:10:25;;;;;;;11.50;5.88;;;6.90;99.90;;;;;;5046728;28;20509;-69
2022/10/10 03:12:51;;;;;;;7.68;5.18;;;6.90;99.90;;;;;;5044011;28;20680;-69
2022/10/10 03:15:16;;;;;;;7.43;5.00;;;6.90;99.90;;;;;;5040723;28;20080;-69
2022/10/10 03:17:42;;;;;;;7.03;5.30;;;7.00;99.90;;;;;;5042260;28;20099;-70
2022/10/10 03:20:08;;;;;;;8.88;6.18;;;6.90;99.90;;;;;;5043296;28;20091;-70
2022/10/10 03:22:34;;;;;;;6.85;5.65;;;7.00;99.90;;;;;;5044618;28;20118;-70
2022/10/10 03:25:00;;;;;;;9.63;5.80;;;7.00;99.90;;;;;;5038656;28;20684;-70
2022/10/10 03:27:25;;;;;;;7.05;5.80;;;7.00;99.90;;;;;;5041630;28;20037;-69
2022/10/10 03:29:51;;;;;;;10.98;6.28;;;7.00;99.90;;;;;;5045451;28;20044;-69
2022/10/10 03:32:17;;;;;;;13.25;6.15;;;7.00;99.90;;;;;;5042554;28;20677;-70
2022/10/10 03:34:42;;;;;;;8.27;5.60;;;7.00;99.90;;;;;;5031246;28;20151;-70
2022/10/10 03:37:08;;;;;;;8.63;5.78;;;7.00;99.90;;;;;;5024397;28;20084;-69
2022/10/10 03:39:34;;;;;;;10.07;6.45;;;7.00;99.90;;;;;;5044874;28;20045;-70
2022/10/10 03:42:00;;;;;;;7.63;6.15;;;7.00;99.90;;;;;;5045619;28;20028;-69
2022/10/10 03:44:25;;;;;;;9.13;6.13;;;7.00;99.90;;;;;;5038927;28;20041;-69
2022/10/10 03:46:51;;;;;;;9.35;5.60;;;7.00;99.90;;;;;;5043708;28;20039;-69
2022/10/10 03:49:17;;;;;;;9.85;6.45;;;7.10;99.90;;;;;;5043399;28;20041;-69
2022/10/10 03:51:43;;;;;;;9.68;6.45;;;7.10;99.90;;;;;;5042587;28;20087;-69
2022/10/10 03:54:08;;;;;;;8.60;6.20;;;7.20;99.90;;;;;;5034230;28;20071;-70
2022/10/10 03:56:34;;;;;;;10.65;6.18;;;7.20;99.90;;;;;;5039066;28;20060;-70
2022/10/10 03:59:02;;;;;;;8.10;6.28;;;7.20;99.90;;;;;;5042458;28;20037;-70
2022/10/10 04:01:29;;;;;;;9.73;6.47;;;7.20;99.90;;;;;;5041541;28;20053;-69
2022/10/10 04:03:55;;;;;;;12.70;6.15;;;7.30;99.90;;;;;;5034268;28;20097;-69
2022/10/10 04:06:21;;;;;;;7.93;6.32;;;7.30;99.90;;;;;;5041481;28;20139;-70
2022/10/10 04:08:47;;;;;;;8.82;6.65;;;7.30;99.90;;;;;;5031523;28;20048;-70
2022/10/10 04:11:12;;;;;;;10.25;6.30;;;7.40;99.90;;;;;;5042278;28;20037;-70
2022/10/10 04:13:38;;;;;;;7.97;6.50;;;7.30;99.90;;;;;;5045111;28;20049;-69
2022/10/10 04:16:04;;;;;;;7.65;6.30;;;7.40;99.90;;;;;;5040036;28;20033;-70
2022/10/10 04:18:30;;;;;;;10.40;6.50;;;7.40;99.90;;;;;;5038908;28;20132;-70
2022/10/10 04:20:56;;;;;;;11.65;6.53;;;7.30;99.90;;;;;;5042210;28;20045;-70
2022/10/10 04:23:22;;;;;;;7.93;6.25;;;7.40;99.90;;;;;;5039768;28;20106;-70
2022/10/10 04:25:52;;;;;;;8.70;6.97;;;7.40;99.90;;;;;;5038561;28;20071;-70
2022/10/10 04:28:18;;;;;;;12.70;6.75;;;7.40;99.90;;;;;;5049254;28;20075;-70
2022/10/10 04:30:44;;;;;;;10.95;6.38;;;7.40;99.90;;;;;;5039100;28;20038;-69
2022/10/10 04:33:10;;;;;;;9.90;6.32;;;7.40;99.90;;;;;;5041244;28;20049;-69
2022/10/10 04:35:37;;;;;;;10.55;6.45;;;7.30;99.90;;;;;;5039599;28;20041;-70
2022/10/10 04:38:03;;;;;;;7.85;6.90;;;7.40;99.90;;;;;;5043346;28;20051;-70
2022/10/10 04:40:29;;;;;;;7.78;6.10;;;7.30;99.90;;;;;;5039375;28;20048;-70
2022/10/10 04:42:54;;;;;;;8.43;6.40;;;7.30;99.90;;;;;;5042831;28;20046;-70
2022/10/10 04:45:21;;;;;;;8.88;6.68;;;7.30;99.90;;;;;;5025110;28;20045;-70
2022/10/10 04:47:47;;;;;;;9.60;6.53;;;7.30;99.90;;;;;;5043066;28;20048;-70
2022/10/10 04:50:13;;;;;;;9.05;6.68;;;7.30;99.90;;;;;;5043194;28;20033;-70
2022/10/10 04:52:38;;;;;;;8.95;7.03;;;7.20;99.90;;;;;;5041400;28;20049;-70
2022/10/10 04:55:04;;;;;;;12.00;6.65;;;7.30;99.90;;;;;;5040722;28;20052;-70
2022/10/10 04:57:30;;;;;;;12.00;6.43;;;7.30;99.90;;;;;;5042834;28;20032;-69
2022/10/10 04:59:56;;;;;;;11.95;6.78;;;7.30;99.90;;;;;;5041914;28;20417;-69
2022/10/10 05:02:21;;;;;;;8.52;6.43;;;7.30;99.90;;;;;;5035107;28;20048;-69
2022/10/10 05:04:47;;;;;;;9.93;6.28;;;7.30;99.90;;;;;;5044841;28;20041;-69
2022/10/10 05:07:13;;;;;;;10.73;7.45;;;7.30;99.90;;;;;;5043091;28;20037;-69
2022/10/10 05:09:39;;;;;;;13.32;7.07;;;7.20;99.90;;;;;;5046375;28;20107;-69
2022/10/10 05:12:04;;;;;;;8.90;6.97;;;7.20;99.90;;;;;;5023650;28;20060;-70
2022/10/10 05:14:30;;;;;;;10.52;6.65;;;7.20;99.90;;;;;;5030816;28;20422;-69
2022/10/10 05:16:56;;;;;;;10.13;7.32;;;7.20;99.90;;;;;;5050492;28;20041;-69
2022/10/10 05:19:22;;;;;;;10.32;6.43;;;7.20;99.90;;;;;;5043596;28;20048;-69
2022/10/10 05:21:47;;;;;;;8.70;7.05;;;7.20;99.90;;;;;;5045004;28;20056;-69
2022/10/10 05:24:13;;;;;;;7.97;6.65;;;7.20;99.90;;;;;;5045577;28;20041;-69
2022/10/10 05:26:38;;;;;;;10.95;7.28;;;7.20;99.90;;;;;;5047210;28;20052;-69
2022/10/10 05:29:05;;;;;;;13.30;7.40;;;7.20;99.90;;;;;;5043697;28;20044;-69
2022/10/10 05:31:31;;;;;;;9.32;7.93;;;7.20;99.90;;;;;;5041627;28;20041;-69
2022/10/10 05:33:56;;;;;;;9.90;6.90;;;7.20;99.90;;;;;;5045789;28;20076;-69
2022/10/10 05:36:22;;;;;;;10.13;6.68;;;7.20;99.90;;;;;;5050102;28;20040;-70
2022/10/10 05:38:48;;;;;;;11.38;6.75;;;7.10;99.90;;;;;;5042012;28;20037;-70
2022/10/10 05:41:14;;;;;;;9.10;6.95;;;7.10;99.90;;;;;;5042098;28;20041;-70
2022/10/10 05:43:39;;;;;;;9.60;6.80;;;7.00;99.90;;;;;;5044277;28;20052;-70
2022/10/10 05:46:05;;;;;;;9.63;7.30;;;7.00;99.90;;;;;;5047579;28;20481;-70
2022/10/10 05:48:31;;;;;;;10.98;7.18;;;7.00;99.90;;;;;;5043725;28;20037;-69
2022/10/10 05:50:58;;;;;;;11.07;7.53;;;7.00;99.90;;;;;;5045965;28;20040;-69
2022/10/10 05:53:25;;;;;;;12.27;7.22;;;7.00;99.90;;;;;;5045255;28;20071;-69
2022/10/10 05:55:51;;;;;;;10.50;7.05;;;6.90;99.90;;;;;;5045870;28;20037;-69
2022/10/10 05:58:17;;;;;;;9.90;7.35;;;6.90;99.90;;;;;;5046106;28;20053;-70
2022/10/10 06:00:45;;;;;;;13.27;8.13;;;6.90;99.90;;;;;;5047848;28;20040;-69
2022/10/10 06:03:15;;;;;;;11.65;7.88;;;6.90;99.90;;;;;;5048459;28;20045;-69
2022/10/10 06:05:41;;;;;;;10.27;8.07;;;6.80;99.90;;;;;;5030413;28;20063;-69
2022/10/10 06:08:07;;;;;;;13.63;7.85;;;6.90;99.90;;;;;;5046921;28;20469;-69
2022/10/10 06:10:38;;;;;;;12.40;7.50;;;6.80;99.90;;;;;;5043613;28;20128;-69
2022/10/10 06:13:04;;;;;;;11.57;8.07;;;6.90;99.90;;;;;;5028345;28;20059;-69
2022/10/10 06:15:30;;;;;;;12.95;7.68;;;6.80;99.90;;;;;;5040500;28;20045;-69
2022/10/10 06:17:56;;;;;;;14.88;8.52;;;6.90;99.90;;;;;;5041736;28;20075;-69
2022/10/10 06:20:22;;;;;;;10.52;7.38;;;6.90;99.90;;;;;;5046223;28;20167;-69
2022/10/10 06:22:47;;;;;;;12.50;8.10;;;7.00;99.90;;;;;;5042906;28;20165;-69
2022/10/10 06:25:13;;;;;;;12.90;8.10;;;7.10;99.90;;;;;;5045720;28;20036;-69
2022/10/10 06:27:39;;;;;;;11.02;7.82;;;7.10;99.90;;;;;;5043311;28;20036;-67
2022/10/10 06:30:05;;;;;;;11.27;8.00;;;7.10;99.90;;;;;;5040386;28;20045;-67
2022/10/10 06:32:31;;;;;;;12.40;7.80;;;7.20;99.90;;;;;;5045815;28;20123;-69
2022/10/10 06:34:57;;;;;;;10.65;7.63;;;7.20;99.90;;;;;;5044425;28;20072;-69
2022/10/10 06:37:22;;;;;;;10.63;7.40;;;7.30;99.90;;;;;;5042042;28;20064;-69
2022/10/10 06:39:49;;;;;;;11.98;7.50;;;7.40;99.90;;;;;;5043099;28;20049;-69
2022/10/10 06:42:15;;;;;;;9.15;7.25;;;7.40;99.90;;;;;;5028176;28;20053;-69
2022/10/10 06:44:40;;;;;;;11.02;7.63;;;7.50;99.90;;;;;;5037250;28;20050;-69
2022/10/10 06:47:07;;;;;;;9.10;7.00;;;7.60;99.90;;;;;;5019246;28;20057;-69
2022/10/10 06:49:32;;;;;;;11.40;6.93;;;7.70;99.90;;;;;;5040097;28;20084;-68
2022/10/10 06:51:58;;;;;;;10.40;7.35;;;7.80;99.90;;;;;;5046849;28;20293;-69
2022/10/10 06:54:24;;;;;;;10.38;7.00;;;7.90;99.90;;;;;;5025445;28;20604;-69
2022/10/10 06:56:49;;;;;;;9.73;7.13;;;8.10;99.90;;;;;;5038981;28;20436;-69
2022/10/10 06:59:15;;;;;;;9.18;7.07;;;8.10;99.90;;;;;;5044468;28;20361;-69
2022/10/10 07:01:41;;;;;;;9.85;7.05;;;8.30;99.90;;;;;;5045846;28;20112;-70
2022/10/10 07:04:07;;;;;;;11.68;7.85;;;8.50;99.90;;;;;;5043849;28;20057;-69
2022/10/10 07:06:33;;;;;;;11.68;6.90;;;8.70;99.90;;;;;;5041155;28;20045;-69
2022/10/10 07:08:59;;;;;;;9.60;7.38;;;8.90;99.90;;;;;;5041372;28;20450;-69
2022/10/10 07:11:25;;;;;;;10.95;6.85;;;9.10;99.90;;;;;;5038478;28;20424;-69
2022/10/10 07:13:52;;;;;;;8.02;6.65;;;9.40;99.90;;;;;;5042111;28;20038;-69
2022/10/10 07:16:18;;;;;;;10.70;7.00;;;9.70;99.90;;;;;;5038394;28;20520;-69
2022/10/10 07:18:44;;;;;;;10.60;6.30;;;9.90;99.90;;;;;;5045235;28;20222;-69
2022/10/10 07:21:10;;;;;;;10.32;6.30;;;10.20;99.90;;;;;;5026002;28;20448;-69
2022/10/10 07:23:36;;;;;;;9.57;6.88;;;10.50;99.90;;;;;;5036843;28;20062;-70
2022/10/10 07:26:09;;;;;;;8.25;6.90;;;10.80;99.90;;;;;;5036623;28;20055;-70
2022/10/10 07:28:35;;;;;;;10.67;5.97;;;11.10;99.90;;;;;;5044718;28;20043;-69
2022/10/10 07:31:07;;;;;;;12.55;6.13;;;11.50;99.90;;;;;;5038923;28;20127;-70
2022/10/10 07:33:36;;;;;;;8.63;6.07;;;11.60;99.90;;;;;;5038511;28;20041;-69
2022/10/10 07:36:03;;;;;;;8.07;6.00;;;11.50;99.90;;;;;;5038074;28;20052;-69
2022/10/10 07:38:28;;;;;;;11.70;5.90;;;11.40;99.90;;;;;;5043608;28;20063;-69
2022/10/10 07:40:54;;;;;;;11.02;6.55;;;11.40;99.90;;;;;;5042444;28;20033;-69
2022/10/10 07:43:20;;;;;;;9.77;7.13;;;11.50;99.90;;;;;;5037377;28;20044;-69
2022/10/10 07:45:45;;;;;;;10.85;6.10;;;11.70;99.90;;;;;;5024671;28;20175;-69
2022/10/10 07:48:11;;;;;;;8.85;5.82;;;12.20;99.90;;;;;;5044536;28;20080;-70
2022/10/10 07:50:41;;;;;;;6.65;5.05;;;12.80;99.90;;;;;;5026513;28;20349;-67
2022/10/10 07:53:08;;;;;;;9.60;5.80;;;13.30;99.90;;;;;;5038149;28;20045;-70
2022/10/10 07:55:34;;;;;;;7.43;5.38;;;13.70;99.90;;;;;;5046002;28;20048;-69
2022/10/10 07:58:02;;;;;;;7.40;5.22;;;14.20;99.90;;;;;;5042253;28;20049;-70
2022/10/10 08:00:28;;;;;;;8.68;5.30;;;14.60;99.90;;;;;;5037062;28;20056;-70
2022/10/10 08:02:54;;;;;;;8.15;4.70;;;14.80;99.90;;;;;;5043279;28;20119;-69
2022/10/10 08:05:20;;;;;;;7.97;5.65;;;15.00;99.90;;;;;;5044480;28;20095;-67
2022/10/10 08:07:46;;;;;;;8.38;4.88;;;15.30;99.90;;;;;;5040364;28;20055;-70
2022/10/10 08:10:12;;;;;;;7.63;5.15;;;15.80;99.90;;;;;;5042283;28;20370;-70
2022/10/10 08:12:38;;;;;;;6.90;4.43;;;16.40;99.90;;;;;;5039564;28;20037;-69
2022/10/10 08:15:05;;;;;;;5.18;4.63;;;16.80;99.90;;;;;;5042040;28;20075;-68
2022/10/10 08:17:31;;;;;;;6.97;4.75;;;17.50;99.90;;;;;;5043215;28;20463;-68
2022/10/10 08:19:57;;;;;;;5.38;4.57;;;17.90;99.90;;;;;;5038902;28;20060;-68
2022/10/10 08:22:22;;;;;;;9.10;4.78;;;18.10;99.90;;;;;;5037221;28;20029;-69
2022/10/10 08:24:48;;;;;;;7.13;4.75;;;18.20;99.90;;;;;;5038665;28;20505;-69
2022/10/10 08:27:16;;;;;;;8.25;4.38;;;18.00;99.70;;;;;;5038244;28;20229;-69
2022/10/10 08:29:42;;;;;;;8.52;5.03;;;17.90;99.80;;;;;;5045317;28;20083;-68
2022/10/10 08:32:08;;;;;;;8.02;5.28;;;17.90;99.80;;;;;;5036360;28;20049;-69
2022/10/10 08:34:33;;;;;;;5.88;4.40;;;18.00;99.40;;;;;;5041179;28;20037;-69
2022/10/10 08:36:59;;;;;;;6.07;4.60;;;18.60;98.60;;;;;;5040111;28;20033;-69
2022/10/10 08:39:25;;;;;;;8.27;4.75;;;19.50;97.10;;;;;;5037768;28;20053;-69
2022/10/10 08:41:55;;;;;;;6.80;4.35;;;20.30;95.60;;;;;;5044515;28;20036;-69
2022/10/10 08:44:42;;;;;;;7.13;4.35;;;20.90;93.70;;;;;;5039242;28;20083;-68
2022/10/10 08:47:30;;;;;;;7.07;4.60;;;20.90;92.00;;;;;;5043375;28;21317;-68
2022/10/10 08:50:00;;;;;;;7.45;4.60;;;20.60;90.30;;;;;;5043177;28;20033;-68
2022/10/10 08:52:44;;;;;;;7.70;4.03;;;20.50;89.90;;;;;;5044705;28;20118;-69
2022/10/10 08:55:20;;;;;;;5.13;4.43;;;20.90;90.60;;;;;;5042916;28;20049;-69
2022/10/10 08:58:10;;;;;;;6.38;4.30;;;21.60;87.50;;;;;;5045862;28;20088;-69
2022/10/10 09:00:43;;;;;;;6.18;4.28;;;21.80;84.70;;;;;;5041180;28;20048;-67
2022/10/10 09:03:22;;;;;;;6.47;4.13;;;21.80;83.70;;;;;;5046653;28;20049;-71
2022/10/10 09:06:18;;;;;;;6.07;4.35;;;21.70;82.90;;;;;;5039619;28;20056;-73
2022/10/10 09:09:08;;;;;;;6.22;4.53;;;21.40;81.70;;;;;;5042285;28;20045;-78
2022/10/10 09:12:08;;;;;;;8.00;4.40;;;21.50;83.50;;;;;;5042651;28;20356;-70
2022/10/10 09:14:58;;;;;;;6.35;3.78;;;22.00;82.40;;;;;;5041975;28;20140;-74
2022/10/10 09:17:52;;;;;;;9.10;4.30;;;22.70;81.50;;;;;;5049227;28;20083;-72
2022/10/10 09:20:41;;;;;;;7.40;3.77;;;22.70;78.30;;;;;;5048370;28;20064;-76
2022/10/10 09:23:38;;;;;;;4.80;4.28;;;22.10;78.00;;;;;;5044244;28;20295;-72
2022/10/10 09:26:12;;;;;;;10.60;4.88;;;21.80;80.20;;;;;;5042082;28;20052;-71
2022/10/10 09:28:47;;;;;;;6.10;3.58;;;22.00;81.30;;;;;;5044863;28;20131;-78
2022/10/10 09:31:18;;;;;;;6.75;4.40;;;22.70;81.20;;;;;;5062861;28;20602;-80
2022/10/10 09:34:02;;;;;;;6.40;4.03;;;23.60;77.50;;;;;;5043525;28;20049;-75
2022/10/10 09:36:36;;;;;;;8.38;3.97;;;24.30;73.50;;;;;;5042467;28;20119;-80
2022/10/10 09:39:14;;;;;;;5.85;3.78;;;24.40;73.40;;;;;;5053032;28;20249;-81
2022/10/10 09:41:54;;;;;;;6.75;3.92;;;24.30;72.90;;;;;;5055053;28;20049;-81
2022/10/10 09:44:21;;;;;;;6.07;3.63;;;24.40;70.80;;;;;;5048408;28;20179;-79
2022/10/10 09:46:47;;;;;;;5.53;3.67;;;24.60;72.00;;;;;;5045502;28;20060;-81
2022/10/10 09:49:17;;;;;;;6.72;4.05;;;25.10;71.40;;;;;;5062353;28;20056;-81
2022/10/10 09:51:45;;;;;;;8.30;3.90;;;24.90;70.30;;;;;;5051583;28;20099;-78
2022/10/10 09:54:14;;;;;;;7.78;3.28;;;24.70;70.30;;;;;;5032481;28;20096;-82
2022/10/10 09:56:59;;;;;;;6.38;4.22;;;24.40;69.50;;;;;;5049133;28;20060;-80
2022/10/10 09:59:45;;;;;;;6.53;4.05;;;23.40;67.90;;;;;;5043968;28;21035;-76
2022/10/10 10:02:16;;;;;;;6.28;3.85;;;22.60;70.30;;;;;;5048911;28;20044;-80
2022/10/10 10:04:41;;;;;;;7.57;4.30;;;21.90;72.40;;;;;;5041531;28;20045;-78
2022/10/10 10:07:17;;;;;;;8.77;4.40;;;21.50;73.60;;;;;;5043136;28;20076;-75
2022/10/10 10:09:50;;;;;;;6.15;3.78;;;21.00;75.30;;;;;;5051231;28;20049;-81
2022/10/10 10:12:23;;;;;;;8.33;3.93;;;20.60;77.30;;;;;;5045965;28;20067;-79
2022/10/10 10:14:51;;;;;;;7.43;4.20;;;20.30;79.10;;;;;;5045977;28;20379;-80
2022/10/10 10:17:21;;;;;;;5.28;3.67;;;20.60;80.50;;;;;;5035433;28;20156;-80
2022/10/10 10:19:47;;;;;;;6.03;4.00;;;20.80;78.80;;;;;;5045225;28;20122;-80
2022/10/10 10:22:37;;;;;;;6.68;4.30;;;20.80;79.40;;;;;;5030965;28;20107;-81
2022/10/10 10:25:38;;;;;;;7.97;4.20;;;20.80;79.50;;;;;;5029178;28;20060;-80
2022/10/10 10:28:10;;;;;;;6.82;4.13;;;20.90;80.80;;;;;;4971986;28;20047;-81
2022/10/10 10:30:37;;;;;;;7.18;4.55;;;21.10;81.30;;;;;;5015245;28;20501;-81
2022/10/10 10:33:19;;;;;;;8.95;4.72;;;21.40;80.60;;;;;;5044144;28;20120;-81
2022/10/10 10:36:06;;;;;;;7.00;4.18;;;21.80;79.10;;;;;;5046827;28;20098;-80
2022/10/10 10:38:51;;;;;;;8.60;4.38;;;22.30;79.00;;;;;;5009368;28;20062;-80
2022/10/10 10:41:54;;;;;;;7.90;3.75;;;22.90;76.50;;;;;;5021149;28;20041;-81
2022/10/10 10:44:39;;;;;;;5.80;4.10;;;23.50;74.30;;;;;;5023268;28;20419;-81
2022/10/10 10:47:27;;;;;;;6.00;3.75;;;23.70;72.80;;;;;;5023960;28;20482;-81
2022/10/10 10:50:21;;;;;;;6.88;3.92;;;23.40;71.50;;;;;;5027626;28;20042;-81
2022/10/10 10:53:03;;;;;;;5.20;3.65;;;22.60;73.80;;;;;;5026662;28;20041;-81
2022/10/10 10:55:45;;;;;;;7.95;4.30;;;21.70;75.30;;;;;;5025509;28;20053;-81
2022/10/10 10:58:30;;;;;;;5.75;3.90;;;21.00;77.50;;;;;;5027194;28;20054;-81
2022/10/10 11:01:00;;;;;;;6.43;3.88;;;20.40;79.20;;;;;;5019920;28;20053;-81
2022/10/10 11:03:34;;;;;;;7.97;4.30;;;19.90;80.90;;;;;;5020025;28;20719;-81
2022/10/10 11:06:21;;;;;;;8.02;4.05;;;19.50;81.90;;;;;;5029702;28;20054;-81
2022/10/10 11:09:15;;;;;;;8.68;4.38;;;19.10;83.10;;;;;;5020563;28;20038;-81
2022/10/10 11:12:25;;;;;;;8.80;4.20;;;18.80;84.80;;;;;;5028881;28;20069;-81
2022/10/10 11:15:03;;;;;;;7.60;4.10;;;18.40;85.20;;;;;;5026392;28;20404;-81
2022/10/10 11:17:41;;;;;;;7.15;4.28;;;18.10;88.50;;;;;;5024787;28;20045;-81
2022/10/10 11:20:25;;;;;;;7.78;4.18;;;17.80;90.00;;;;;;5007062;28;20061;-81
2022/10/10 11:23:10;;;;;;;7.38;4.82;;;17.60;90.70;;;;;;5027784;28;20057;-81
2022/10/10 11:26:01;;;;;;;10.25;4.28;;;17.40;92.20;;;;;;5040452;28;20048;-81
2022/10/10 11:28:41;;;;;;;8.88;4.97;;;17.30;92.70;;;;;;4995110;28;20052;-81
2022/10/10 11:31:25;;;;;;;6.65;4.40;;;17.10;93.60;;;;;;5020241;28;20092;-80
2022/10/10 11:34:02;;;;;;;8.30;4.90;;;17.00;93.90;;;;;;5024546;28;20064;-80
2022/10/10 11:36:30;;;;;;;6.57;4.68;;;16.80;94.30;;;;;;5005867;28;20071;-81
2022/10/10 11:39:17;;;;;;;8.45;4.63;;;16.70;95.20;;;;;;5024037;28;20037;-71
2022/10/10 11:42:04;;;;;;;8.30;4.72;;;16.50;96.10;;;;;;5017005;28;20171;-66
2022/10/10 11:44:32;;;;;;;10.73;5.07;;;16.30;96.90;;;;;;5020798;28;20125;-65
2022/10/10 11:47:01;;;;;;;7.97;5.05;;;16.20;98.70;;;;;;5019461;28;20038;-66
2022/10/10 11:49:51;;;;;;;8.48;5.13;;;16.10;99.70;;;;;;5014615;28;20360;-66
2022/10/10 11:52:19;;;;;;;9.85;5.22;;;15.90;99.90;;;;;;5014310;28;20073;-65
2022/10/10 11:54:49;;;;;;;8.20;5.25;;;15.80;99.90;;;;;;5016139;28;20174;-66
2022/10/10 11:57:38;;;;;;;7.53;5.40;;;15.70;99.90;;;;;;4999093;28;20084;-66
2022/10/10 12:00:11;;;;;;;9.48;5.38;;;15.70;99.90;;;;;;5015498;28;20042;-66
2022/10/10 12:02:41;;;;;;;9.07;5.20;;;15.70;99.90;;;;;;5013644;28;20045;-66
2022/10/10 12:05:34;;;;;;;8.43;5.55;;;15.60;99.90;;;;;;5013906;28;20583;-65
2022/10/10 12:08:18;;;;;;;8.30;5.32;;;15.60;99.90;;;;;;5014446;28;20179;-65
2022/10/10 12:10:48;;;;;;;;;;;15.60;99.90;;;;;;5019581;28;20038;-65
2022/10/10 12:13:54;;;;;;;9.18;5.07;;;15.60;99.90;;;;;;5018633;28;19917;-65
2022/10/10 12:16:22;;;;;;;9.25;5.60;;;15.50;99.90;;;;;;5018808;28;20041;-65
2022/10/10 12:18:59;;;;;;;7.03;5.07;;;15.50;99.90;;;;;;5010540;28;20520;-64
2022/10/10 12:21:27;;;;;;;10.82;5.35;;;15.50;99.90;;;;;;5020835;28;20033;-63
2022/10/10 12:24:12;;;;;;;14.05;5.82;;;15.40;99.90;;;;;;5020947;28;20030;-64
2022/10/10 12:26:53;;;;;;;11.63;5.32;;;15.40;99.90;;;;;;5017164;28;20389;-64
2022/10/10 12:29:39;;;;;;;11.32;5.82;;;15.40;99.90;;;;;;5016891;28;20129;-64
2022/10/10 12:32:14;;;;;;;12.30;5.88;;;15.40;99.90;;;;;;5014362;28;20156;-64
2022/10/10 12:34:43;;;;;;;10.20;6.18;;;15.30;99.90;;;;;;5017797;28;20065;-64
2022/10/10 12:37:19;;;;;;;11.32;6.78;;;15.30;99.90;;;;;;5013373;28;20041;-64
2022/10/10 12:40:05;;;;;;;8.18;5.60;;;15.30;99.90;;;;;;5016459;28;20144;-64
2022/10/10 12:42:37;;;;;;;10.82;6.60;;;15.30;99.90;;;;;;5008697;28;20452;-65
2022/10/10 12:45:23;;;;;;;10.63;6.72;;;15.20;99.90;;;;;;5022933;28;20037;-65
2022/10/10 12:47:49;;;;;;;11.02;6.88;;;15.20;99.90;;;;;;4978054;28;20084;-66
2022/10/10 12:50:37;;;;;;;11.52;6.80;;;15.10;99.90;;;;;;5024266;28;20432;-67
2022/10/10 12:53:17;;;;;;;13.27;7.55;;;15.00;99.90;;;;;;5021762;28;20033;-65
2022/10/10 12:55:46;;;;;;;13.95;7.25;;;15.00;99.90;;;;;;5022890;28;20500;-68
2022/10/10 12:58:28;;;;;;;12.63;6.93;;;15.00;99.90;;;;;;5022397;28;21248;-68
2022/10/10 13:01:00;;;;;;;11.23;6.70;;;15.00;99.90;;;;;;5040681;28;20051;-68
2022/10/10 13:03:38;;;;;;;13.13;8.07;;;14.80;99.90;;;;;;5023485;28;20041;-68
2022/10/10 13:06:25;;;;;;;12.18;7.35;;;14.80;99.90;;;;;;5023314;28;20061;-69
2022/10/10 13:08:53;;;;;;;12.07;7.90;;;14.80;99.90;;;;;;5024538;28;20136;-69
2022/10/10 13:11:19;;;;;;;13.32;8.27;;;14.70;99.90;;;;;;5023444;28;20733;-69
2022/10/10 13:13:50;;;;;;;12.77;7.80;;;14.70;99.90;;;;;;5006270;28;20120;-69